RYR3879 LCPH-EDLV
Flight info
| Callsign | RYR3879 |
|---|---|
| Flight time | 4h 8m |
| Altitude | 36000 |
| Route | GENOS DCT PEDER DCT LUTIG DCT EXELA UN127 RIKSO DCT PEREN DCT DISOR DCT LONTA UL608 DOLEV DCT LURID DCT BEDOX DCT SIMBA DCT TESDU DCT AMETU T852 EKSAK/N0373F260 T852 KULIX/N0363F240 T852 HMM Z850 EKTOT/N0343F200 Z850 TURUX DCT SOBTU SOBTU1W |
| Aircraft | B738/M-SDE3FGILRWY/SB1 |
Departure
| Time | 2026-05-05 21:25 |
|---|---|
| Airport | Paphos International Airport (LCPH) |
Arrival
| Time | 2026-05-06 01:33 |
|---|---|
| Airport | Weeze (Niederrhein) Airport (EDLV) |
| Time | Latitude | Longitude | Altitude | Speed | Heading |
|---|---|---|---|---|---|
| 2026-05-05 20:48 | 34.71427 | 32.48098 | 44 ft | 0 kts | 18° |
| 2026-05-05 20:53 | 34.71427 | 32.48097 | 44 ft | 0 kts | 18° |
| 2026-05-05 20:54 | 34.71427 | 32.48098 | 44 ft | 0 kts | 18° |
| 2026-05-05 20:56 | 34.71427 | 32.48097 | 44 ft | 0 kts | 18° |
| 2026-05-05 20:57 | 34.71427 | 32.48098 | 44 ft | 0 kts | 18° |
| 2026-05-05 20:58 | 34.71427 | 32.48097 | 44 ft | 0 kts | 18° |
| 2026-05-05 20:58 | 34.71427 | 32.48098 | 44 ft | 0 kts | 18° |
| 2026-05-05 21:11 | 34.71426 | 32.48097 | 44 ft | 1 kts | 18° |
| 2026-05-05 21:11 | 34.71414 | 32.48091 | 44 ft | 3 kts | 60° |
| 2026-05-05 21:12 | 34.71410 | 32.48093 | 41 ft | 3 kts | 137° |
| 2026-05-05 21:12 | 34.71425 | 32.48076 | 40 ft | 3 kts | 132° |
| 2026-05-05 21:12 | 34.71435 | 32.48060 | 44 ft | 1 kts | 111° |
| 2026-05-05 21:12 | 34.71437 | 32.48054 | 44 ft | 0 kts | 110° |
| 2026-05-05 21:16 | 34.71436 | 32.48056 | 44 ft | 1 kts | 110° |
| 2026-05-05 21:16 | 34.71429 | 32.48079 | 41 ft | 5 kts | 110° |
| 2026-05-05 21:16 | 34.71416 | 32.48133 | 44 ft | 8 kts | 93° |
| 2026-05-05 21:17 | 34.71417 | 32.48212 | 44 ft | 9 kts | 82° |
| 2026-05-05 21:17 | 34.71466 | 32.48267 | 43 ft | 11 kts | 22° |
| 2026-05-05 21:17 | 34.71548 | 32.48303 | 43 ft | 13 kts | 20° |
| 2026-05-05 21:17 | 34.71635 | 32.48342 | 43 ft | 14 kts | 20° |
| 2026-05-05 21:18 | 34.71727 | 32.48383 | 43 ft | 14 kts | 20° |
| 2026-05-05 21:18 | 34.71817 | 32.48424 | 44 ft | 14 kts | 20° |
| 2026-05-05 21:18 | 34.71910 | 32.48465 | 43 ft | 12 kts | 21° |
| 2026-05-05 21:18 | 34.71973 | 32.48479 | 43 ft | 9 kts | 346° |
| 2026-05-05 21:19 | 34.72010 | 32.48420 | 43 ft | 10 kts | 292° |
| 2026-05-05 21:19 | 34.72034 | 32.48341 | 42 ft | 10 kts | 290° |
| 2026-05-05 21:19 | 34.72060 | 32.48258 | 44 ft | 11 kts | 290° |
| 2026-05-05 21:19 | 34.72087 | 32.48169 | 44 ft | 12 kts | 290° |
| 2026-05-05 21:20 | 34.72115 | 32.48075 | 45 ft | 12 kts | 290° |
| 2026-05-05 21:20 | 34.72145 | 32.47977 | 45 ft | 13 kts | 290° |
| 2026-05-05 21:20 | 34.72177 | 32.47874 | 44 ft | 13 kts | 290° |
| 2026-05-05 21:20 | 34.72209 | 32.47769 | 44 ft | 14 kts | 290° |
| 2026-05-05 21:21 | 34.72242 | 32.47659 | 46 ft | 14 kts | 291° |
| 2026-05-05 21:21 | 34.72277 | 32.47546 | 45 ft | 15 kts | 291° |
| 2026-05-05 21:21 | 34.72313 | 32.47430 | 47 ft | 15 kts | 289° |
| 2026-05-05 21:21 | 34.72347 | 32.47316 | 47 ft | 15 kts | 290° |
| 2026-05-05 21:22 | 34.72370 | 32.47242 | 47 ft | 12 kts | 290° |
| 2026-05-05 21:22 | 34.72341 | 32.47159 | 47 ft | 9 kts | 202° |
| 2026-05-05 21:22 | 34.72327 | 32.47153 | 47 ft | 1 kts | 200° |
| 2026-05-05 21:22 | 34.72319 | 32.47150 | 44 ft | 1 kts | 200° |
| 2026-05-05 21:23 | 34.72308 | 32.47145 | 46 ft | 3 kts | 200° |
| 2026-05-05 21:23 | 34.72274 | 32.47130 | 46 ft | 8 kts | 200° |
| 2026-05-05 21:23 | 34.72226 | 32.47138 | 45 ft | 8 kts | 128° |
| 2026-05-05 21:23 | 34.72210 | 32.47185 | 45 ft | 8 kts | 108° |
| 2026-05-05 21:24 | 34.72202 | 32.47214 | 44 ft | 19 kts | 109° |
| 2026-05-05 21:24 | 34.72067 | 32.47656 | 47 ft | 91 kts | 110° |
| 2026-05-05 21:24 | 34.71764 | 32.48647 | 43 ft | 153 kts | 110° |
| 2026-05-05 21:24 | 34.71336 | 32.50019 | 273 ft | 184 kts | 109° |
| 2026-05-05 21:25 | 34.70896 | 32.51420 | 1251 ft | 175 kts | 109° |
| 2026-05-05 21:25 | 34.70452 | 32.52857 | 1900 ft | 184 kts | 109° |
| 2026-05-05 21:25 | 34.70008 | 32.54306 | 2650 ft | 186 kts | 108° |
| 2026-05-05 21:25 | 34.69339 | 32.55673 | 3340 ft | 192 kts | 139° |
| 2026-05-05 21:26 | 34.68076 | 32.56356 | 3607 ft | 218 kts | 176° |
| 2026-05-05 21:26 | 34.66579 | 32.55884 | 3859 ft | 234 kts | 216° |
| 2026-05-05 21:26 | 34.65586 | 32.54293 | 4314 ft | 238 kts | 252° |
| 2026-05-05 21:26 | 34.65288 | 32.52288 | 4777 ft | 247 kts | 264° |
| 2026-05-05 21:27 | 34.65118 | 32.50208 | 5251 ft | 254 kts | 264° |
| 2026-05-05 21:27 | 34.64874 | 32.48075 | 5926 ft | 255 kts | 261° |
| 2026-05-05 21:27 | 34.64551 | 32.45945 | 6650 ft | 257 kts | 259° |
| 2026-05-05 21:27 | 34.64182 | 32.43828 | 7492 ft | 255 kts | 258° |
| 2026-05-05 21:28 | 34.63796 | 32.41727 | 8271 ft | 256 kts | 258° |
| 2026-05-05 21:28 | 34.63405 | 32.39619 | 9074 ft | 256 kts | 260° |
| 2026-05-05 21:28 | 34.63379 | 32.37444 | 9621 ft | 267 kts | 278° |
| 2026-05-05 21:28 | 34.63678 | 32.35147 | 10065 ft | 280 kts | 279° |
| 2026-05-05 21:29 | 34.64006 | 32.32747 | 10359 ft | 300 kts | 279° |
| 2026-05-05 21:29 | 34.64353 | 32.30148 | 10541 ft | 323 kts | 279° |
| 2026-05-05 21:29 | 34.64713 | 32.27368 | 10804 ft | 340 kts | 278° |
| 2026-05-05 21:29 | 34.65076 | 32.24498 | 11389 ft | 346 kts | 278° |
| 2026-05-05 21:30 | 34.65436 | 32.21609 | 12165 ft | 347 kts | 278° |
| 2026-05-05 21:30 | 34.65794 | 32.18709 | 12929 ft | 348 kts | 278° |
| 2026-05-05 21:30 | 34.66137 | 32.15785 | 13645 ft | 350 kts | 276° |
| 2026-05-05 21:30 | 34.66373 | 32.12833 | 14296 ft | 353 kts | 274° |
| 2026-05-05 21:31 | 34.66565 | 32.09848 | 14938 ft | 355 kts | 274° |
| 2026-05-05 21:31 | 34.66752 | 32.06864 | 15584 ft | 357 kts | 274° |
| 2026-05-05 21:31 | 34.66945 | 32.03875 | 16207 ft | 359 kts | 274° |
| 2026-05-05 21:31 | 34.67151 | 32.00809 | 16838 ft | 361 kts | 274° |
| 2026-05-05 21:32 | 34.67362 | 31.97751 | 17452 ft | 364 kts | 274° |
| 2026-05-05 21:32 | 34.67574 | 31.94689 | 18064 ft | 366 kts | 274° |
| 2026-05-05 21:32 | 34.67813 | 31.91588 | 18623 ft | 369 kts | 278° |
| 2026-05-05 21:32 | 34.68569 | 31.88602 | 19133 ft | 373 kts | 295° |
| 2026-05-05 21:33 | 34.69833 | 31.85836 | 19703 ft | 375 kts | 298° |
| 2026-05-05 21:33 | 34.71176 | 31.83110 | 20210 ft | 378 kts | 299° |
| 2026-05-05 21:33 | 34.72550 | 31.80370 | 20714 ft | 380 kts | 299° |
| 2026-05-05 21:33 | 34.73928 | 31.77617 | 21220 ft | 382 kts | 298° |
| 2026-05-05 21:34 | 34.75305 | 31.74845 | 21726 ft | 384 kts | 298° |
| 2026-05-05 21:34 | 34.76684 | 31.72046 | 22225 ft | 387 kts | 298° |
| 2026-05-05 21:34 | 34.78064 | 31.69226 | 22708 ft | 389 kts | 298° |
| 2026-05-05 21:34 | 34.79446 | 31.66393 | 23181 ft | 391 kts | 298° |
| 2026-05-05 21:35 | 34.80835 | 31.63534 | 23640 ft | 393 kts | 298° |
| 2026-05-05 21:35 | 34.82227 | 31.60666 | 24027 ft | 395 kts | 298° |
| 2026-05-05 21:35 | 34.83625 | 31.57782 | 24425 ft | 396 kts | 298° |
| 2026-05-05 21:35 | 34.85024 | 31.54893 | 24826 ft | 397 kts | 298° |
| 2026-05-05 21:36 | 34.86430 | 31.51986 | 25208 ft | 399 kts | 298° |
| 2026-05-05 21:36 | 34.87838 | 31.49072 | 25576 ft | 401 kts | 298° |
| 2026-05-05 21:36 | 34.89253 | 31.46144 | 25940 ft | 402 kts | 298° |
| 2026-05-05 21:36 | 34.90673 | 31.43201 | 26305 ft | 403 kts | 298° |
| 2026-05-05 21:37 | 34.92096 | 31.40249 | 26668 ft | 405 kts | 298° |
| 2026-05-05 21:37 | 34.93525 | 31.37283 | 27001 ft | 406 kts | 299° |
| 2026-05-05 21:37 | 34.94957 | 31.34309 | 27337 ft | 408 kts | 299° |
| 2026-05-05 21:37 | 34.96392 | 31.31325 | 27666 ft | 409 kts | 299° |
| 2026-05-05 21:38 | 34.97838 | 31.28316 | 27994 ft | 411 kts | 299° |
| 2026-05-05 21:38 | 34.99263 | 31.25348 | 28307 ft | 412 kts | 299° |
| 2026-05-05 21:38 | 35.00712 | 31.22327 | 28616 ft | 414 kts | 299° |
| 2026-05-05 21:38 | 35.02167 | 31.19293 | 28914 ft | 415 kts | 299° |
| 2026-05-05 21:39 | 35.03625 | 31.16247 | 29238 ft | 416 kts | 299° |
| 2026-05-05 21:39 | 35.05080 | 31.13207 | 29686 ft | 414 kts | 300° |
| 2026-05-05 21:39 | 35.06522 | 31.10190 | 30177 ft | 410 kts | 300° |
| 2026-05-05 21:39 | 35.07956 | 31.07187 | 30536 ft | 409 kts | 300° |
| 2026-05-05 21:40 | 35.09385 | 31.04193 | 30808 ft | 409 kts | 300° |
| 2026-05-05 21:40 | 35.10812 | 31.01199 | 31075 ft | 410 kts | 300° |
| 2026-05-05 21:40 | 35.12249 | 30.98182 | 31377 ft | 409 kts | 300° |
| 2026-05-05 21:40 | 35.13675 | 30.95184 | 31714 ft | 408 kts | 300° |
| 2026-05-05 21:41 | 35.15099 | 30.92191 | 32009 ft | 407 kts | 300° |
| 2026-05-05 21:41 | 35.16520 | 30.89200 | 32277 ft | 407 kts | 300° |
| 2026-05-05 21:41 | 35.17933 | 30.86202 | 32551 ft | 407 kts | 298° |
| 2026-05-05 21:41 | 35.19243 | 30.83147 | 32849 ft | 406 kts | 297° |
| 2026-05-05 21:42 | 35.20507 | 30.80070 | 33131 ft | 405 kts | 296° |
| 2026-05-05 21:42 | 35.21757 | 30.76981 | 33394 ft | 405 kts | 296° |
| 2026-05-05 21:42 | 35.22999 | 30.73906 | 33659 ft | 404 kts | 296° |
| 2026-05-05 21:42 | 35.24251 | 30.70814 | 33934 ft | 404 kts | 296° |
| 2026-05-05 21:43 | 35.25501 | 30.67739 | 34167 ft | 403 kts | 296° |
| 2026-05-05 21:43 | 35.26749 | 30.64671 | 34372 ft | 403 kts | 296° |
| 2026-05-05 21:43 | 35.28001 | 30.61600 | 34596 ft | 403 kts | 296° |
| 2026-05-05 21:43 | 35.29252 | 30.58532 | 34783 ft | 403 kts | 296° |
| 2026-05-05 21:44 | 35.30500 | 30.55470 | 34987 ft | 402 kts | 296° |
| 2026-05-05 21:44 | 35.31750 | 30.52399 | 35162 ft | 403 kts | 296° |
| 2026-05-05 21:44 | 35.32997 | 30.49332 | 35312 ft | 404 kts | 296° |
| 2026-05-05 21:44 | 35.34249 | 30.46251 | 35484 ft | 404 kts | 296° |
| 2026-05-05 21:45 | 35.35498 | 30.43174 | 35696 ft | 403 kts | 296° |
| 2026-05-05 21:45 | 35.36744 | 30.40104 | 35898 ft | 402 kts | 296° |
| 2026-05-05 21:45 | 35.37989 | 30.37031 | 36016 ft | 403 kts | 296° |
| 2026-05-05 21:45 | 35.39239 | 30.33942 | 36020 ft | 405 kts | 296° |
| 2026-05-05 21:46 | 35.41735 | 30.27768 | 36025 ft | 403 kts | 296° |
| 2026-05-05 21:46 | 35.44209 | 30.21636 | 36026 ft | 400 kts | 296° |
| 2026-05-05 21:47 | 35.46648 | 30.15579 | 36028 ft | 398 kts | 296° |
| 2026-05-05 21:47 | 35.49090 | 30.09504 | 36024 ft | 396 kts | 296° |
| 2026-05-05 21:48 | 35.51525 | 30.03474 | 36026 ft | 396 kts | 299° |
| 2026-05-05 21:48 | 35.54802 | 29.98014 | 36019 ft | 398 kts | 313° |
| 2026-05-05 21:49 | 35.58968 | 29.93519 | 36022 ft | 400 kts | 317° |
| 2026-05-05 21:49 | 35.63222 | 29.89100 | 36025 ft | 402 kts | 317° |
| 2026-05-05 21:50 | 35.67481 | 29.84636 | 36022 ft | 403 kts | 317° |
| 2026-05-05 21:50 | 35.71755 | 29.80126 | 36023 ft | 405 kts | 317° |
| 2026-05-05 21:51 | 35.76035 | 29.75596 | 36024 ft | 406 kts | 317° |
| 2026-05-05 21:51 | 35.80324 | 29.71050 | 36021 ft | 407 kts | 317° |
| 2026-05-05 21:52 | 35.86761 | 29.64214 | 36024 ft | 407 kts | 317° |
| 2026-05-05 21:53 | 35.91045 | 29.59656 | 36021 ft | 407 kts | 317° |
| 2026-05-05 21:53 | 35.95297 | 29.55126 | 36022 ft | 406 kts | 317° |
| 2026-05-05 21:54 | 35.99628 | 29.50665 | 36023 ft | 405 kts | 319° |
| 2026-05-05 21:54 | 36.03988 | 29.46272 | 36021 ft | 404 kts | 319° |
| 2026-05-05 21:55 | 36.08331 | 29.41871 | 36024 ft | 403 kts | 319° |
| 2026-05-05 21:55 | 36.12653 | 29.37467 | 36018 ft | 402 kts | 319° |
| 2026-05-05 21:56 | 36.16964 | 29.33067 | 36020 ft | 402 kts | 319° |
| 2026-05-05 21:56 | 36.21257 | 29.28640 | 36020 ft | 401 kts | 318° |
| 2026-05-05 21:57 | 36.25521 | 29.24176 | 36017 ft | 401 kts | 318° |
| 2026-05-05 21:57 | 36.29816 | 29.19683 | 36017 ft | 401 kts | 318° |
| 2026-05-05 21:58 | 36.34056 | 29.15240 | 36019 ft | 402 kts | 318° |
| 2026-05-05 21:58 | 36.38317 | 29.10749 | 36015 ft | 402 kts | 318° |
| 2026-05-05 21:59 | 36.42578 | 29.06248 | 36013 ft | 403 kts | 318° |
| 2026-05-05 21:59 | 36.46846 | 29.01735 | 36015 ft | 403 kts | 318° |
| 2026-05-05 22:00 | 36.51115 | 28.97214 | 36018 ft | 403 kts | 318° |
| 2026-05-05 22:00 | 36.55382 | 28.92689 | 36020 ft | 403 kts | 318° |
| 2026-05-05 22:01 | 36.59653 | 28.88154 | 36021 ft | 403 kts | 318° |
| 2026-05-05 22:01 | 36.63918 | 28.83617 | 36028 ft | 404 kts | 318° |
| 2026-05-05 22:02 | 36.68190 | 28.79066 | 36024 ft | 404 kts | 318° |
| 2026-05-05 22:02 | 36.72464 | 28.74529 | 36019 ft | 404 kts | 319° |
| 2026-05-05 22:03 | 36.76747 | 28.70000 | 36019 ft | 403 kts | 319° |
| 2026-05-05 22:03 | 36.81015 | 28.65479 | 36027 ft | 403 kts | 319° |
| 2026-05-05 22:04 | 36.85281 | 28.60947 | 36015 ft | 402 kts | 319° |
| 2026-05-05 22:04 | 36.89541 | 28.56416 | 36034 ft | 402 kts | 319° |
| 2026-05-05 22:05 | 36.93799 | 28.51879 | 36053 ft | 402 kts | 319° |
| 2026-05-05 22:05 | 36.98053 | 28.47338 | 36055 ft | 403 kts | 319° |
| 2026-05-05 22:06 | 37.02329 | 28.42768 | 36055 ft | 404 kts | 319° |
| 2026-05-05 22:06 | 37.06598 | 28.38198 | 36059 ft | 404 kts | 319° |
| 2026-05-05 22:07 | 37.10842 | 28.33605 | 36061 ft | 403 kts | 318° |
| 2026-05-05 22:07 | 37.15040 | 28.29007 | 36068 ft | 403 kts | 318° |
| 2026-05-05 22:08 | 37.19294 | 28.24414 | 36074 ft | 403 kts | 319° |
| 2026-05-05 22:08 | 37.23564 | 28.19846 | 36072 ft | 404 kts | 319° |
| 2026-05-05 22:09 | 37.27840 | 28.15253 | 36073 ft | 404 kts | 319° |
| 2026-05-05 22:09 | 37.32106 | 28.10654 | 36063 ft | 404 kts | 319° |
| 2026-05-05 22:10 | 37.35643 | 28.06820 | 36073 ft | 404 kts | 319° |
| 2026-05-05 22:10 | 37.39888 | 28.02208 | 36073 ft | 404 kts | 319° |
| 2026-05-05 22:11 | 37.44135 | 27.97587 | 36070 ft | 403 kts | 319° |
| 2026-05-05 22:11 | 37.48371 | 27.92973 | 36066 ft | 403 kts | 319° |
| 2026-05-05 22:12 | 37.52612 | 27.88345 | 36064 ft | 403 kts | 319° |
| 2026-05-05 22:12 | 37.56851 | 27.83713 | 36057 ft | 403 kts | 319° |
| 2026-05-05 22:13 | 37.61086 | 27.79079 | 36062 ft | 403 kts | 319° |
| 2026-05-05 22:13 | 37.65313 | 27.74446 | 36056 ft | 403 kts | 319° |
| 2026-05-05 22:14 | 37.69541 | 27.69803 | 36056 ft | 402 kts | 319° |
| 2026-05-05 22:14 | 37.73761 | 27.65164 | 36066 ft | 402 kts | 319° |
| 2026-05-05 22:15 | 37.77985 | 27.60512 | 36061 ft | 403 kts | 319° |
| 2026-05-05 22:15 | 37.82214 | 27.55847 | 36061 ft | 403 kts | 319° |
| 2026-05-05 22:16 | 37.86439 | 27.51179 | 36072 ft | 403 kts | 319° |
| 2026-05-05 22:16 | 37.90662 | 27.46507 | 36072 ft | 403 kts | 319° |
| 2026-05-05 22:17 | 37.94882 | 27.41829 | 36079 ft | 403 kts | 319° |
| 2026-05-05 22:17 | 37.99109 | 27.37136 | 36075 ft | 404 kts | 319° |
| 2026-05-05 22:18 | 38.03310 | 27.32466 | 36078 ft | 404 kts | 319° |
| 2026-05-05 22:18 | 38.07562 | 27.27731 | 36075 ft | 404 kts | 319° |
| 2026-05-05 22:19 | 38.11756 | 27.23053 | 36074 ft | 404 kts | 319° |
| 2026-05-05 22:19 | 38.15974 | 27.18340 | 36071 ft | 404 kts | 319° |
| 2026-05-05 22:20 | 38.20190 | 27.13621 | 36077 ft | 404 kts | 319° |
| 2026-05-05 22:20 | 38.24404 | 27.08899 | 36073 ft | 404 kts | 319° |
| 2026-05-05 22:21 | 38.28616 | 27.04170 | 36081 ft | 403 kts | 319° |
| 2026-05-05 22:21 | 38.32822 | 26.99449 | 36080 ft | 403 kts | 320° |
| 2026-05-05 22:22 | 38.37061 | 26.94771 | 36074 ft | 403 kts | 320° |
| 2026-05-05 22:22 | 38.41308 | 26.90095 | 36072 ft | 404 kts | 320° |
| 2026-05-05 22:23 | 38.45559 | 26.85399 | 36085 ft | 404 kts | 320° |
| 2026-05-05 22:23 | 38.49803 | 26.80698 | 36080 ft | 404 kts | 320° |
| 2026-05-05 22:24 | 38.54047 | 26.75987 | 36068 ft | 404 kts | 320° |
| 2026-05-05 22:24 | 38.58296 | 26.71262 | 36074 ft | 405 kts | 320° |
| 2026-05-05 22:25 | 38.62543 | 26.66532 | 36077 ft | 405 kts | 320° |
| 2026-05-05 22:25 | 38.66796 | 26.61788 | 36069 ft | 406 kts | 320° |
| 2026-05-05 22:26 | 38.71045 | 26.57040 | 36069 ft | 406 kts | 320° |
| 2026-05-05 22:26 | 38.75304 | 26.52274 | 36074 ft | 407 kts | 320° |
| 2026-05-05 22:27 | 38.79562 | 26.47500 | 36075 ft | 407 kts | 320° |
| 2026-05-05 22:27 | 38.83774 | 26.42714 | 36073 ft | 408 kts | 317° |
| 2026-05-05 22:28 | 38.87733 | 26.37495 | 36077 ft | 409 kts | 315° |
| 2026-05-05 22:28 | 38.91657 | 26.32137 | 36075 ft | 409 kts | 315° |
| 2026-05-05 22:29 | 38.95537 | 26.26854 | 36072 ft | 410 kts | 315° |
| 2026-05-05 22:29 | 38.99459 | 26.21537 | 36076 ft | 410 kts | 315° |
| 2026-05-05 22:30 | 39.03387 | 26.16217 | 36068 ft | 410 kts | 315° |
| 2026-05-05 22:30 | 39.07318 | 26.10889 | 36063 ft | 411 kts | 315° |
| 2026-05-05 22:31 | 39.11247 | 26.05554 | 36066 ft | 411 kts | 315° |
| 2026-05-05 22:31 | 39.15176 | 26.00209 | 36069 ft | 411 kts | 315° |
| 2026-05-05 22:32 | 39.19103 | 25.94857 | 36075 ft | 410 kts | 315° |
| 2026-05-05 22:32 | 39.23026 | 25.89502 | 36067 ft | 411 kts | 315° |
| 2026-05-05 22:33 | 39.26947 | 25.84140 | 36060 ft | 411 kts | 315° |
| 2026-05-05 22:33 | 39.30874 | 25.78761 | 36063 ft | 412 kts | 315° |
| 2026-05-05 22:34 | 39.34798 | 25.73376 | 36063 ft | 412 kts | 315° |
| 2026-05-05 22:34 | 39.38722 | 25.67981 | 36061 ft | 412 kts | 315° |
| 2026-05-05 22:35 | 39.42619 | 25.62613 | 36061 ft | 412 kts | 315° |
| 2026-05-05 22:35 | 39.46546 | 25.57197 | 36061 ft | 413 kts | 315° |
| 2026-05-05 22:36 | 39.50473 | 25.51769 | 36065 ft | 413 kts | 315° |
| 2026-05-05 22:36 | 39.54395 | 25.46339 | 36060 ft | 413 kts | 314° |
| 2026-05-05 22:37 | 39.58320 | 25.40895 | 36064 ft | 413 kts | 314° |
| 2026-05-05 22:37 | 39.62240 | 25.35449 | 36061 ft | 413 kts | 314° |
| 2026-05-05 22:38 | 39.66162 | 25.29990 | 36058 ft | 413 kts | 314° |
| 2026-05-05 22:38 | 39.70083 | 25.24523 | 36055 ft | 413 kts | 314° |
| 2026-05-05 22:39 | 39.73995 | 25.19058 | 36055 ft | 413 kts | 314° |
| 2026-05-05 22:39 | 39.77902 | 25.13592 | 36052 ft | 413 kts | 314° |
| 2026-05-05 22:40 | 39.81816 | 25.08103 | 36053 ft | 413 kts | 314° |
| 2026-05-05 22:40 | 39.85724 | 25.02616 | 36051 ft | 413 kts | 314° |
| 2026-05-05 22:41 | 39.89575 | 24.97196 | 36032 ft | 400 kts | 314° |
| 2026-05-05 22:41 | 39.93310 | 24.91931 | 36048 ft | 394 kts | 314° |
| 2026-05-05 22:42 | 39.97020 | 24.86693 | 36058 ft | 393 kts | 314° |
| 2026-05-05 22:42 | 40.00730 | 24.81448 | 36060 ft | 393 kts | 314° |
| 2026-05-05 22:43 | 40.04437 | 24.76196 | 36060 ft | 395 kts | 314° |
| 2026-05-05 22:43 | 40.08139 | 24.70942 | 36062 ft | 397 kts | 314° |
| 2026-05-05 22:44 | 40.11882 | 24.65622 | 36063 ft | 398 kts | 314° |
| 2026-05-05 22:44 | 40.15639 | 24.60271 | 36060 ft | 400 kts | 314° |
| 2026-05-05 22:45 | 40.19408 | 24.54893 | 36060 ft | 402 kts | 314° |
| 2026-05-05 22:45 | 40.23187 | 24.49492 | 36058 ft | 403 kts | 314° |
| 2026-05-05 22:46 | 40.26968 | 24.44080 | 36061 ft | 403 kts | 314° |
| 2026-05-05 22:46 | 40.30750 | 24.38655 | 36057 ft | 403 kts | 313° |
| 2026-05-05 22:47 | 40.34519 | 24.33238 | 36059 ft | 402 kts | 313° |
| 2026-05-05 22:47 | 40.38281 | 24.27824 | 36059 ft | 401 kts | 313° |
| 2026-05-05 22:48 | 40.42025 | 24.22423 | 36057 ft | 400 kts | 313° |
| 2026-05-05 22:48 | 40.45764 | 24.17022 | 36055 ft | 399 kts | 313° |
| 2026-05-05 22:49 | 40.49492 | 24.11626 | 36057 ft | 398 kts | 313° |
| 2026-05-05 22:49 | 40.53208 | 24.06238 | 36053 ft | 398 kts | 313° |
| 2026-05-05 22:50 | 40.56919 | 24.00850 | 36056 ft | 397 kts | 313° |
| 2026-05-05 22:50 | 40.60548 | 23.95357 | 36048 ft | 398 kts | 308° |
| 2026-05-05 22:51 | 40.63789 | 23.89447 | 36052 ft | 398 kts | 307° |
| 2026-05-05 22:51 | 40.66998 | 23.83502 | 36055 ft | 399 kts | 307° |
| 2026-05-05 22:52 | 40.70222 | 23.77548 | 36057 ft | 399 kts | 307° |
| 2026-05-05 22:52 | 40.73459 | 23.71587 | 36052 ft | 400 kts | 307° |
| 2026-05-05 22:53 | 40.76696 | 23.65622 | 36046 ft | 399 kts | 307° |
| 2026-05-05 22:53 | 40.79926 | 23.59660 | 36059 ft | 400 kts | 307° |
| 2026-05-05 22:54 | 40.83159 | 23.53681 | 36044 ft | 401 kts | 307° |
| 2026-05-05 22:54 | 40.86401 | 23.47675 | 36042 ft | 401 kts | 307° |
| 2026-05-05 22:55 | 40.89637 | 23.41665 | 36045 ft | 401 kts | 307° |
| 2026-05-05 22:55 | 40.92323 | 23.36671 | 36039 ft | 400 kts | 307° |
| 2026-05-05 22:56 | 40.95539 | 23.30677 | 36037 ft | 399 kts | 307° |
| 2026-05-05 22:56 | 40.98744 | 23.24695 | 36051 ft | 398 kts | 307° |
| 2026-05-05 22:57 | 41.01941 | 23.18714 | 36038 ft | 397 kts | 307° |
| 2026-05-05 22:57 | 41.05122 | 23.12752 | 36050 ft | 396 kts | 307° |
| 2026-05-05 22:58 | 41.08299 | 23.06788 | 36027 ft | 396 kts | 307° |
| 2026-05-05 22:58 | 41.11462 | 23.00836 | 36033 ft | 394 kts | 306° |
| 2026-05-05 22:59 | 41.14615 | 22.94893 | 36044 ft | 394 kts | 306° |
| 2026-05-05 22:59 | 41.17763 | 22.88947 | 36043 ft | 393 kts | 306° |
| 2026-05-05 23:00 | 41.22474 | 22.80029 | 36043 ft | 394 kts | 306° |
| 2026-05-05 23:00 | 41.25734 | 22.74191 | 36043 ft | 393 kts | 313° |
| 2026-05-05 23:01 | 41.29395 | 22.68852 | 36042 ft | 393 kts | 313° |
| 2026-05-05 23:01 | 41.33125 | 22.63454 | 36043 ft | 394 kts | 313° |
| 2026-05-05 23:02 | 41.36827 | 22.58058 | 36048 ft | 395 kts | 313° |
| 2026-05-05 23:02 | 41.40499 | 22.52674 | 36047 ft | 395 kts | 313° |
| 2026-05-05 23:03 | 41.44191 | 22.47242 | 36048 ft | 396 kts | 313° |
| 2026-05-05 23:03 | 41.47887 | 22.41795 | 36050 ft | 396 kts | 313° |
| 2026-05-05 23:04 | 41.51586 | 22.36331 | 36037 ft | 397 kts | 313° |
| 2026-05-05 23:04 | 41.55288 | 22.30854 | 36043 ft | 397 kts | 313° |
| 2026-05-05 23:05 | 41.58982 | 22.25378 | 36046 ft | 397 kts | 313° |
| 2026-05-05 23:05 | 41.62678 | 22.19889 | 36044 ft | 397 kts | 313° |
| 2026-05-05 23:06 | 41.66369 | 22.14399 | 36045 ft | 397 kts | 313° |
| 2026-05-05 23:06 | 41.70062 | 22.08894 | 36044 ft | 397 kts | 312° |
| 2026-05-05 23:07 | 41.73747 | 22.03392 | 36041 ft | 397 kts | 312° |
| 2026-05-05 23:07 | 41.77434 | 21.97876 | 36043 ft | 397 kts | 312° |
| 2026-05-05 23:08 | 41.81117 | 21.92356 | 36042 ft | 397 kts | 312° |
| 2026-05-05 23:08 | 41.84795 | 21.86833 | 36049 ft | 397 kts | 312° |
| 2026-05-05 23:09 | 41.88473 | 21.81299 | 36051 ft | 397 kts | 312° |
| 2026-05-05 23:09 | 41.92151 | 21.75755 | 36046 ft | 398 kts | 312° |
| 2026-05-05 23:10 | 41.95832 | 21.70196 | 36042 ft | 399 kts | 312° |
| 2026-05-05 23:10 | 41.99522 | 21.64613 | 36054 ft | 399 kts | 311° |
| 2026-05-05 23:11 | 42.03212 | 21.59019 | 36050 ft | 400 kts | 311° |
| 2026-05-05 23:11 | 42.06901 | 21.53416 | 36050 ft | 400 kts | 311° |
| 2026-05-05 23:12 | 42.10590 | 21.47802 | 36046 ft | 401 kts | 311° |
| 2026-05-05 23:12 | 42.14280 | 21.42177 | 36052 ft | 401 kts | 311° |
| 2026-05-05 23:13 | 42.17952 | 21.36514 | 36050 ft | 401 kts | 310° |
| 2026-05-05 23:13 | 42.21565 | 21.30784 | 36068 ft | 401 kts | 310° |
| 2026-05-05 23:14 | 42.25155 | 21.25065 | 36067 ft | 402 kts | 310° |
| 2026-05-05 23:14 | 42.28798 | 21.19265 | 36070 ft | 402 kts | 310° |
| 2026-05-05 23:15 | 42.32412 | 21.13507 | 36073 ft | 402 kts | 310° |
| 2026-05-05 23:15 | 42.36025 | 21.07743 | 36071 ft | 402 kts | 310° |
| 2026-05-05 23:16 | 42.39623 | 21.01994 | 36069 ft | 401 kts | 310° |
| 2026-05-05 23:16 | 42.43202 | 20.96261 | 36071 ft | 400 kts | 310° |
| 2026-05-05 23:17 | 42.46791 | 20.90502 | 36078 ft | 399 kts | 310° |
| 2026-05-05 23:17 | 42.50369 | 20.84749 | 36077 ft | 399 kts | 309° |
| 2026-05-05 23:18 | 42.53944 | 20.78990 | 36076 ft | 400 kts | 309° |
| 2026-05-05 23:18 | 42.57523 | 20.73214 | 36077 ft | 400 kts | 309° |
| 2026-05-05 23:19 | 42.61099 | 20.67429 | 36071 ft | 400 kts | 309° |
| 2026-05-05 23:19 | 42.64678 | 20.61630 | 36069 ft | 401 kts | 309° |
| 2026-05-05 23:20 | 42.68255 | 20.55822 | 36068 ft | 401 kts | 309° |
| 2026-05-05 23:20 | 42.71831 | 20.50005 | 36069 ft | 401 kts | 309° |
| 2026-05-05 23:21 | 42.75402 | 20.44184 | 36076 ft | 400 kts | 309° |
| 2026-05-05 23:21 | 42.78961 | 20.38369 | 36067 ft | 399 kts | 309° |
| 2026-05-05 23:22 | 42.82484 | 20.32607 | 36081 ft | 398 kts | 309° |
| 2026-05-05 23:22 | 42.86417 | 20.27361 | 36090 ft | 399 kts | 317° |
| 2026-05-05 23:23 | 42.90621 | 20.22365 | 36077 ft | 399 kts | 317° |
| 2026-05-05 23:23 | 42.94804 | 20.17378 | 36081 ft | 399 kts | 317° |
| 2026-05-05 23:24 | 42.98967 | 20.12377 | 36086 ft | 399 kts | 317° |
| 2026-05-05 23:24 | 43.03124 | 20.07358 | 36080 ft | 399 kts | 317° |
| 2026-05-05 23:25 | 43.07281 | 20.02326 | 36080 ft | 399 kts | 317° |
| 2026-05-05 23:25 | 43.11434 | 19.97290 | 36079 ft | 399 kts | 317° |
| 2026-05-05 23:26 | 43.15587 | 19.92242 | 36078 ft | 399 kts | 317° |
| 2026-05-05 23:26 | 43.19734 | 19.87194 | 36079 ft | 399 kts | 316° |
| 2026-05-05 23:27 | 43.23876 | 19.82141 | 36080 ft | 399 kts | 316° |
| 2026-05-05 23:27 | 43.28016 | 19.77082 | 36073 ft | 398 kts | 316° |
| 2026-05-05 23:28 | 43.32150 | 19.72020 | 36070 ft | 398 kts | 316° |
| 2026-05-05 23:28 | 43.36285 | 19.66948 | 36066 ft | 398 kts | 316° |
| 2026-05-05 23:29 | 43.40409 | 19.61880 | 36068 ft | 397 kts | 316° |
| 2026-05-05 23:29 | 43.44519 | 19.56818 | 36062 ft | 396 kts | 316° |
| 2026-05-05 23:30 | 43.48616 | 19.51764 | 36067 ft | 395 kts | 316° |
| 2026-05-05 23:30 | 43.52713 | 19.46700 | 36072 ft | 396 kts | 316° |
| 2026-05-05 23:31 | 43.56817 | 19.41616 | 36061 ft | 397 kts | 316° |
| 2026-05-05 23:31 | 43.60927 | 19.36515 | 36059 ft | 398 kts | 316° |
| 2026-05-05 23:32 | 43.65013 | 19.31436 | 36055 ft | 398 kts | 316° |
| 2026-05-05 23:32 | 43.69154 | 19.26278 | 36063 ft | 399 kts | 316° |
| 2026-05-05 23:33 | 43.73242 | 19.21176 | 36059 ft | 399 kts | 316° |
| 2026-05-05 23:33 | 43.77349 | 19.16042 | 36066 ft | 397 kts | 316° |
| 2026-05-05 23:34 | 43.81447 | 19.10908 | 36058 ft | 398 kts | 316° |
| 2026-05-05 23:34 | 43.85548 | 19.05759 | 36050 ft | 398 kts | 316° |
| 2026-05-05 23:35 | 43.89655 | 19.00594 | 36049 ft | 399 kts | 316° |
| 2026-05-05 23:35 | 43.93763 | 18.95416 | 36050 ft | 399 kts | 315° |
| 2026-05-05 23:36 | 43.97874 | 18.90226 | 36041 ft | 400 kts | 315° |
| 2026-05-05 23:36 | 44.01987 | 18.85023 | 36036 ft | 400 kts | 315° |
| 2026-05-05 23:37 | 44.06086 | 18.79827 | 36037 ft | 399 kts | 315° |
| 2026-05-05 23:37 | 44.10184 | 18.74623 | 36040 ft | 399 kts | 315° |
| 2026-05-05 23:38 | 44.14280 | 18.69411 | 36035 ft | 399 kts | 315° |
| 2026-05-05 23:38 | 44.18369 | 18.64197 | 36011 ft | 398 kts | 315° |
| 2026-05-05 23:39 | 44.22451 | 18.58982 | 36001 ft | 398 kts | 315° |
| 2026-05-05 23:39 | 44.26524 | 18.53768 | 36000 ft | 397 kts | 315° |
| 2026-05-05 23:40 | 44.30587 | 18.48558 | 36003 ft | 397 kts | 315° |
| 2026-05-05 23:40 | 44.34649 | 18.43336 | 36009 ft | 397 kts | 315° |
| 2026-05-05 23:41 | 44.38708 | 18.38110 | 36012 ft | 397 kts | 315° |
| 2026-05-05 23:41 | 44.42767 | 18.32872 | 36010 ft | 397 kts | 315° |
| 2026-05-05 23:42 | 44.46826 | 18.27625 | 36013 ft | 398 kts | 315° |
| 2026-05-05 23:42 | 44.50205 | 18.23249 | 36014 ft | 398 kts | 315° |
| 2026-05-05 23:43 | 44.54274 | 18.17969 | 36009 ft | 399 kts | 315° |
| 2026-05-05 23:43 | 44.58345 | 18.12677 | 36004 ft | 399 kts | 315° |
| 2026-05-05 23:44 | 44.62424 | 18.07363 | 36000 ft | 400 kts | 315° |
| 2026-05-05 23:44 | 44.66498 | 18.02046 | 35997 ft | 400 kts | 315° |
| 2026-05-05 23:45 | 44.70575 | 17.96712 | 35997 ft | 401 kts | 315° |
| 2026-05-05 23:45 | 44.74654 | 17.91367 | 35996 ft | 401 kts | 314° |
| 2026-05-05 23:46 | 44.78733 | 17.86011 | 35999 ft | 401 kts | 314° |
| 2026-05-05 23:46 | 44.82785 | 17.80678 | 35994 ft | 401 kts | 314° |
| 2026-05-05 23:47 | 44.86864 | 17.75300 | 35983 ft | 401 kts | 314° |
| 2026-05-05 23:47 | 44.90935 | 17.69920 | 35981 ft | 401 kts | 314° |
| 2026-05-05 23:48 | 44.95011 | 17.64524 | 35973 ft | 402 kts | 314° |
| 2026-05-05 23:48 | 44.99082 | 17.59122 | 35976 ft | 402 kts | 314° |
| 2026-05-05 23:49 | 45.03152 | 17.53711 | 35972 ft | 402 kts | 314° |
| 2026-05-05 23:49 | 45.07226 | 17.48283 | 35975 ft | 402 kts | 314° |
| 2026-05-05 23:50 | 45.11294 | 17.42853 | 35972 ft | 402 kts | 314° |
| 2026-05-05 23:50 | 45.15353 | 17.37414 | 35971 ft | 402 kts | 314° |
| 2026-05-05 23:51 | 45.19400 | 17.31940 | 35975 ft | 402 kts | 313° |
| 2026-05-05 23:51 | 45.23448 | 17.26446 | 35973 ft | 403 kts | 313° |
| 2026-05-05 23:52 | 45.27489 | 17.20952 | 35974 ft | 403 kts | 313° |
| 2026-05-05 23:52 | 45.31541 | 17.15436 | 35977 ft | 403 kts | 313° |
| 2026-05-05 23:53 | 45.35592 | 17.09909 | 35973 ft | 404 kts | 313° |
| 2026-05-05 23:53 | 45.39643 | 17.04371 | 35974 ft | 404 kts | 313° |
| 2026-05-05 23:54 | 45.43695 | 16.98820 | 35972 ft | 404 kts | 313° |
| 2026-05-05 23:54 | 45.47750 | 16.93254 | 35971 ft | 405 kts | 313° |
| 2026-05-05 23:55 | 45.51802 | 16.87679 | 35966 ft | 405 kts | 313° |
| 2026-05-05 23:55 | 45.55817 | 16.82144 | 35966 ft | 405 kts | 313° |
| 2026-05-05 23:56 | 45.59871 | 16.76543 | 35960 ft | 405 kts | 313° |
| 2026-05-05 23:56 | 45.63912 | 16.70949 | 35966 ft | 405 kts | 313° |
| 2026-05-05 23:57 | 45.67963 | 16.65328 | 35959 ft | 406 kts | 312° |
| 2026-05-05 23:57 | 45.72009 | 16.59703 | 35957 ft | 406 kts | 312° |
| 2026-05-05 23:58 | 45.76053 | 16.54069 | 35962 ft | 406 kts | 312° |
| 2026-05-05 23:58 | 45.80105 | 16.48410 | 35958 ft | 406 kts | 312° |
| 2026-05-05 23:59 | 45.84144 | 16.42760 | 35957 ft | 406 kts | 312° |
| 2026-05-05 23:59 | 45.88192 | 16.37083 | 35957 ft | 406 kts | 312° |
| 2026-05-06 00:00 | 45.92233 | 16.31403 | 35959 ft | 407 kts | 312° |
| 2026-05-06 00:00 | 45.96268 | 16.25720 | 35954 ft | 407 kts | 312° |
| 2026-05-06 00:01 | 46.00297 | 16.20035 | 35945 ft | 407 kts | 311° |
| 2026-05-06 00:01 | 46.04343 | 16.14311 | 35947 ft | 408 kts | 311° |
| 2026-05-06 00:02 | 46.08391 | 16.08573 | 35941 ft | 408 kts | 311° |
| 2026-05-06 00:02 | 46.12447 | 16.02810 | 35935 ft | 409 kts | 311° |
| 2026-05-06 00:03 | 46.16493 | 15.97050 | 35930 ft | 410 kts | 311° |
| 2026-05-06 00:03 | 46.20543 | 15.91270 | 35934 ft | 410 kts | 311° |
| 2026-05-06 00:04 | 46.24625 | 15.85433 | 35913 ft | 412 kts | 311° |
| 2026-05-06 00:04 | 46.28722 | 15.79641 | 35917 ft | 413 kts | 313° |
| 2026-05-06 00:05 | 46.35025 | 15.71114 | 35922 ft | 414 kts | 313° |
| 2026-05-06 00:06 | 46.39230 | 15.65417 | 35919 ft | 415 kts | 313° |
| 2026-05-06 00:06 | 46.43406 | 15.59725 | 35914 ft | 416 kts | 312° |
| 2026-05-06 00:07 | 46.47657 | 15.53908 | 35914 ft | 417 kts | 312° |
| 2026-05-06 00:07 | 46.51845 | 15.48161 | 35917 ft | 418 kts | 312° |
| 2026-05-06 00:08 | 46.56063 | 15.42358 | 35919 ft | 418 kts | 312° |
| 2026-05-06 00:08 | 46.60296 | 15.36525 | 35912 ft | 420 kts | 312° |
| 2026-05-06 00:09 | 46.64536 | 15.30666 | 35904 ft | 420 kts | 312° |
| 2026-05-06 00:09 | 46.68763 | 15.24815 | 35909 ft | 420 kts | 311° |
| 2026-05-06 00:10 | 46.72991 | 15.18949 | 35893 ft | 419 kts | 311° |
| 2026-05-06 00:10 | 46.77203 | 15.13089 | 35891 ft | 419 kts | 311° |
| 2026-05-06 00:11 | 46.81427 | 15.07201 | 35897 ft | 417 kts | 311° |
| 2026-05-06 00:11 | 46.85616 | 15.01350 | 35901 ft | 417 kts | 311° |
| 2026-05-06 00:12 | 46.89802 | 14.95486 | 35926 ft | 417 kts | 311° |
| 2026-05-06 00:12 | 46.93963 | 14.89644 | 35917 ft | 417 kts | 311° |
| 2026-05-06 00:13 | 46.98145 | 14.83760 | 35925 ft | 417 kts | 310° |
| 2026-05-06 00:13 | 47.02335 | 14.77852 | 35925 ft | 418 kts | 310° |
| 2026-05-06 00:14 | 47.06522 | 14.71934 | 35926 ft | 419 kts | 310° |
| 2026-05-06 00:14 | 47.10721 | 14.65986 | 35920 ft | 420 kts | 310° |
| 2026-05-06 00:15 | 47.14929 | 14.60011 | 35915 ft | 421 kts | 310° |
| 2026-05-06 00:15 | 47.19130 | 14.54033 | 35916 ft | 421 kts | 310° |
| 2026-05-06 00:16 | 47.23335 | 14.48033 | 35932 ft | 421 kts | 310° |
| 2026-05-06 00:16 | 47.27542 | 14.42018 | 35937 ft | 422 kts | 310° |
| 2026-05-06 00:17 | 47.31755 | 14.35980 | 35934 ft | 423 kts | 310° |
| 2026-05-06 00:17 | 47.35946 | 14.29959 | 35930 ft | 424 kts | 310° |
| 2026-05-06 00:18 | 47.40200 | 14.23834 | 35926 ft | 425 kts | 310° |
| 2026-05-06 00:18 | 47.44428 | 14.17731 | 35929 ft | 425 kts | 310° |
| 2026-05-06 00:19 | 47.48631 | 14.11651 | 35921 ft | 427 kts | 310° |
| 2026-05-06 00:19 | 47.52872 | 14.05500 | 35913 ft | 427 kts | 310° |
| 2026-05-06 00:20 | 47.57106 | 13.99346 | 35920 ft | 426 kts | 310° |
| 2026-05-06 00:20 | 47.61340 | 13.93177 | 35898 ft | 427 kts | 310° |
| 2026-05-06 00:21 | 47.65577 | 13.86987 | 35908 ft | 427 kts | 309° |
| 2026-05-06 00:21 | 47.69806 | 13.80795 | 35912 ft | 428 kts | 309° |
| 2026-05-06 00:22 | 47.74052 | 13.74563 | 35896 ft | 430 kts | 309° |
| 2026-05-06 00:22 | 47.78301 | 13.68311 | 35904 ft | 430 kts | 309° |
| 2026-05-06 00:23 | 47.82556 | 13.62034 | 35906 ft | 432 kts | 309° |
| 2026-05-06 00:23 | 47.86820 | 13.55731 | 35908 ft | 432 kts | 309° |
| 2026-05-06 00:24 | 47.91081 | 13.49416 | 35906 ft | 433 kts | 309° |
| 2026-05-06 00:24 | 47.95347 | 13.43076 | 35901 ft | 434 kts | 309° |
| 2026-05-06 00:25 | 47.99600 | 13.36742 | 35899 ft | 434 kts | 309° |
| 2026-05-06 00:25 | 48.03875 | 13.30359 | 35902 ft | 435 kts | 309° |
| 2026-05-06 00:26 | 48.08152 | 13.23956 | 35894 ft | 436 kts | 309° |
| 2026-05-06 00:26 | 48.12433 | 13.17530 | 35890 ft | 436 kts | 309° |
| 2026-05-06 00:27 | 48.16717 | 13.11085 | 35888 ft | 436 kts | 309° |
| 2026-05-06 00:27 | 48.20997 | 13.04631 | 35883 ft | 437 kts | 309° |
| 2026-05-06 00:28 | 48.25404 | 12.98338 | 35888 ft | 440 kts | 314° |
| 2026-05-06 00:28 | 48.30088 | 12.92475 | 35879 ft | 441 kts | 315° |
| 2026-05-06 00:29 | 48.34834 | 12.86626 | 35881 ft | 442 kts | 315° |
| 2026-05-06 00:29 | 48.39546 | 12.80735 | 35878 ft | 442 kts | 315° |
| 2026-05-06 00:30 | 48.43507 | 12.75729 | 35876 ft | 442 kts | 315° |
| 2026-05-06 00:30 | 48.48171 | 12.69801 | 35876 ft | 443 kts | 315° |
| 2026-05-06 00:31 | 48.52875 | 12.63805 | 35875 ft | 443 kts | 314° |
| 2026-05-06 00:31 | 48.57576 | 12.57800 | 35868 ft | 443 kts | 315° |
| 2026-05-06 00:32 | 48.62261 | 12.51802 | 35859 ft | 444 kts | 315° |
| 2026-05-06 00:32 | 48.67000 | 12.45719 | 35877 ft | 444 kts | 315° |
| 2026-05-06 00:33 | 48.71681 | 12.39696 | 35866 ft | 445 kts | 314° |
| 2026-05-06 00:33 | 48.76374 | 12.33641 | 35862 ft | 445 kts | 314° |
| 2026-05-06 00:34 | 48.81058 | 12.27583 | 35862 ft | 446 kts | 314° |
| 2026-05-06 00:34 | 48.85776 | 12.21465 | 35857 ft | 446 kts | 314° |
| 2026-05-06 00:35 | 48.90497 | 12.15327 | 35855 ft | 447 kts | 314° |
| 2026-05-06 00:35 | 48.95198 | 12.09200 | 35853 ft | 447 kts | 314° |
| 2026-05-06 00:36 | 48.99927 | 12.03020 | 35852 ft | 447 kts | 314° |
| 2026-05-06 00:36 | 49.04652 | 11.96830 | 35856 ft | 447 kts | 314° |
| 2026-05-06 00:37 | 49.09367 | 11.90637 | 35861 ft | 448 kts | 314° |
| 2026-05-06 00:37 | 49.14085 | 11.84422 | 35856 ft | 448 kts | 314° |
| 2026-05-06 00:38 | 49.18800 | 11.78196 | 35860 ft | 449 kts | 314° |
| 2026-05-06 00:38 | 49.23529 | 11.71936 | 35846 ft | 449 kts | 315° |
| 2026-05-06 00:39 | 49.28250 | 11.65669 | 35854 ft | 450 kts | 315° |
| 2026-05-06 00:39 | 49.32971 | 11.59386 | 35856 ft | 450 kts | 315° |
| 2026-05-06 00:40 | 49.37702 | 11.53073 | 35839 ft | 450 kts | 315° |
| 2026-05-06 00:40 | 49.42425 | 11.46753 | 35833 ft | 451 kts | 315° |
| 2026-05-06 00:41 | 49.47151 | 11.40413 | 35837 ft | 451 kts | 315° |
| 2026-05-06 00:41 | 49.51870 | 11.34065 | 35831 ft | 452 kts | 315° |
| 2026-05-06 00:42 | 49.56599 | 11.27688 | 35838 ft | 452 kts | 315° |
| 2026-05-06 00:42 | 49.61324 | 11.21298 | 35832 ft | 452 kts | 315° |
| 2026-05-06 00:43 | 49.66027 | 11.14921 | 35821 ft | 452 kts | 315° |
| 2026-05-06 00:43 | 49.70756 | 11.08492 | 35831 ft | 451 kts | 315° |
| 2026-05-06 00:44 | 49.75468 | 11.02067 | 35822 ft | 452 kts | 315° |
| 2026-05-06 00:44 | 49.80181 | 10.95625 | 35821 ft | 452 kts | 315° |
| 2026-05-06 00:45 | 49.84883 | 10.89180 | 35815 ft | 452 kts | 315° |
| 2026-05-06 00:45 | 49.89591 | 10.82709 | 35815 ft | 452 kts | 315° |
| 2026-05-06 00:46 | 49.94294 | 10.76228 | 35813 ft | 452 kts | 315° |
| 2026-05-06 00:46 | 49.98964 | 10.69773 | 35815 ft | 452 kts | 315° |
| 2026-05-06 00:47 | 50.03654 | 10.63274 | 35811 ft | 452 kts | 315° |
| 2026-05-06 00:47 | 50.08352 | 10.56747 | 35809 ft | 452 kts | 315° |
| 2026-05-06 00:48 | 50.13035 | 10.50221 | 35808 ft | 452 kts | 315° |
| 2026-05-06 00:48 | 50.17721 | 10.43675 | 35805 ft | 452 kts | 315° |
| 2026-05-06 00:49 | 50.22083 | 10.36734 | 35798 ft | 447 kts | 303° |
| 2026-05-06 00:49 | 50.25641 | 10.28791 | 35808 ft | 446 kts | 301° |
| 2026-05-06 00:50 | 50.29140 | 10.20762 | 35806 ft | 446 kts | 301° |
| 2026-05-06 00:50 | 50.32664 | 10.12759 | 35800 ft | 446 kts | 302° |
| 2026-05-06 00:51 | 50.36161 | 10.04869 | 35802 ft | 446 kts | 302° |
| 2026-05-06 00:51 | 50.39705 | 9.96874 | 35795 ft | 447 kts | 302° |
| 2026-05-06 00:52 | 50.43236 | 9.88882 | 35809 ft | 447 kts | 302° |
| 2026-05-06 00:52 | 50.46751 | 9.80899 | 35807 ft | 448 kts | 302° |
| 2026-05-06 00:53 | 50.50244 | 9.72939 | 35799 ft | 448 kts | 302° |
| 2026-05-06 00:53 | 50.53734 | 9.64968 | 35791 ft | 440 kts | 302° |
| 2026-05-06 00:54 | 50.57186 | 9.57056 | 35793 ft | 437 kts | 302° |
| 2026-05-06 00:54 | 50.58891 | 9.53137 | 35547 ft | 439 kts | 302° |
| 2026-05-06 00:54 | 50.60611 | 9.49180 | 35246 ft | 434 kts | 302° |
| 2026-05-06 00:54 | 50.62299 | 9.45291 | 34848 ft | 430 kts | 302° |
| 2026-05-06 00:55 | 50.63984 | 9.41403 | 34470 ft | 427 kts | 302° |
| 2026-05-06 00:55 | 50.65650 | 9.37551 | 34084 ft | 425 kts | 302° |
| 2026-05-06 00:55 | 50.67301 | 9.33730 | 33660 ft | 423 kts | 302° |
| 2026-05-06 00:55 | 50.68893 | 9.30040 | 33250 ft | 421 kts | 303° |
| 2026-05-06 00:56 | 50.70578 | 9.26128 | 32835 ft | 418 kts | 303° |
| 2026-05-06 00:56 | 50.72202 | 9.22351 | 32449 ft | 415 kts | 303° |
| 2026-05-06 00:56 | 50.73821 | 9.18584 | 32064 ft | 412 kts | 303° |
| 2026-05-06 00:56 | 50.75421 | 9.14853 | 31686 ft | 409 kts | 303° |
| 2026-05-06 00:57 | 50.77009 | 9.11143 | 31322 ft | 406 kts | 303° |
| 2026-05-06 00:57 | 50.78572 | 9.07489 | 30961 ft | 404 kts | 303° |
| 2026-05-06 00:57 | 50.80153 | 9.03789 | 30595 ft | 401 kts | 303° |
| 2026-05-06 00:57 | 50.81708 | 9.00143 | 30234 ft | 399 kts | 303° |
| 2026-05-06 00:58 | 50.83260 | 8.96512 | 29888 ft | 397 kts | 304° |
| 2026-05-06 00:58 | 50.84889 | 8.93032 | 29465 ft | 395 kts | 307° |
| 2026-05-06 00:58 | 50.86597 | 8.89640 | 29053 ft | 392 kts | 308° |
| 2026-05-06 00:58 | 50.88304 | 8.86314 | 28700 ft | 388 kts | 308° |
| 2026-05-06 00:59 | 50.89967 | 8.83065 | 28315 ft | 385 kts | 308° |
| 2026-05-06 00:59 | 50.91674 | 8.79699 | 27950 ft | 381 kts | 308° |
| 2026-05-06 00:59 | 50.93324 | 8.76419 | 27576 ft | 379 kts | 308° |
| 2026-05-06 00:59 | 50.94954 | 8.73158 | 27212 ft | 376 kts | 308° |
| 2026-05-06 01:00 | 50.96540 | 8.69981 | 26877 ft | 373 kts | 308° |
| 2026-05-06 01:00 | 50.98152 | 8.66744 | 26518 ft | 370 kts | 308° |
| 2026-05-06 01:00 | 50.99740 | 8.63551 | 26168 ft | 368 kts | 308° |
| 2026-05-06 01:00 | 51.01389 | 8.60429 | 25815 ft | 366 kts | 314° |
| 2026-05-06 01:01 | 51.03293 | 8.57831 | 25653 ft | 359 kts | 325° |
| 2026-05-06 01:01 | 51.05349 | 8.55655 | 25547 ft | 357 kts | 327° |
| 2026-05-06 01:01 | 51.07479 | 8.53480 | 25445 ft | 368 kts | 327° |
| 2026-05-06 01:01 | 51.09655 | 8.51268 | 25311 ft | 374 kts | 327° |
| 2026-05-06 01:02 | 51.11836 | 8.49036 | 25169 ft | 371 kts | 327° |
| 2026-05-06 01:02 | 51.13995 | 8.46810 | 25039 ft | 368 kts | 327° |
| 2026-05-06 01:02 | 51.16127 | 8.44598 | 24902 ft | 365 kts | 326° |
| 2026-05-06 01:02 | 51.18248 | 8.42389 | 24779 ft | 362 kts | 326° |
| 2026-05-06 01:03 | 51.20347 | 8.40196 | 24655 ft | 360 kts | 326° |
| 2026-05-06 01:03 | 51.22384 | 8.38064 | 24531 ft | 359 kts | 326° |
| 2026-05-06 01:03 | 51.24517 | 8.35829 | 24408 ft | 358 kts | 326° |
| 2026-05-06 01:03 | 51.26601 | 8.33642 | 24284 ft | 357 kts | 326° |
| 2026-05-06 01:04 | 51.28681 | 8.31458 | 24165 ft | 357 kts | 326° |
| 2026-05-06 01:04 | 51.30318 | 8.29737 | 24068 ft | 357 kts | 326° |
| 2026-05-06 01:04 | 51.32400 | 8.27548 | 23947 ft | 358 kts | 326° |
| 2026-05-06 01:04 | 51.34471 | 8.25367 | 23816 ft | 358 kts | 326° |
| 2026-05-06 01:05 | 51.36553 | 8.23179 | 23722 ft | 358 kts | 326° |
| 2026-05-06 01:05 | 51.38604 | 8.21035 | 23612 ft | 357 kts | 326° |
| 2026-05-06 01:05 | 51.40712 | 8.18831 | 23496 ft | 357 kts | 326° |
| 2026-05-06 01:05 | 51.42791 | 8.16649 | 23392 ft | 357 kts | 326° |
| 2026-05-06 01:06 | 51.44845 | 8.14474 | 23276 ft | 356 kts | 326° |
| 2026-05-06 01:06 | 51.46889 | 8.12303 | 23159 ft | 355 kts | 326° |
| 2026-05-06 01:06 | 51.48949 | 8.10116 | 23049 ft | 354 kts | 326° |
| 2026-05-06 01:06 | 51.50999 | 8.07937 | 22942 ft | 353 kts | 326° |
| 2026-05-06 01:07 | 51.53040 | 8.05767 | 22832 ft | 352 kts | 326° |
| 2026-05-06 01:07 | 51.55068 | 8.03614 | 22737 ft | 351 kts | 326° |
| 2026-05-06 01:07 | 51.57106 | 8.01450 | 22633 ft | 350 kts | 326° |
| 2026-05-06 01:07 | 51.59134 | 7.99292 | 22531 ft | 349 kts | 326° |
| 2026-05-06 01:08 | 51.61158 | 7.97136 | 22423 ft | 349 kts | 326° |
| 2026-05-06 01:08 | 51.63188 | 7.94972 | 22325 ft | 349 kts | 326° |
| 2026-05-06 01:08 | 51.65206 | 7.92817 | 22218 ft | 349 kts | 326° |
| 2026-05-06 01:08 | 51.67224 | 7.90661 | 22111 ft | 349 kts | 326° |
| 2026-05-06 01:09 | 51.69256 | 7.88486 | 22007 ft | 349 kts | 326° |
| 2026-05-06 01:09 | 51.71271 | 7.86328 | 21914 ft | 349 kts | 326° |
| 2026-05-06 01:09 | 51.73298 | 7.84154 | 21807 ft | 349 kts | 326° |
| 2026-05-06 01:09 | 51.75315 | 7.81989 | 21698 ft | 350 kts | 326° |
| 2026-05-06 01:10 | 51.77326 | 7.79828 | 21606 ft | 349 kts | 326° |
| 2026-05-06 01:10 | 51.79369 | 7.77630 | 21490 ft | 349 kts | 326° |
| 2026-05-06 01:10 | 51.81387 | 7.75456 | 21374 ft | 349 kts | 326° |
| 2026-05-06 01:10 | 51.83409 | 7.73277 | 21286 ft | 349 kts | 326° |
| 2026-05-06 01:11 | 51.85378 | 7.71004 | 21182 ft | 348 kts | 319° |
| 2026-05-06 01:11 | 51.87080 | 7.68225 | 21090 ft | 346 kts | 308° |
| 2026-05-06 01:11 | 51.88595 | 7.65203 | 20996 ft | 345 kts | 307° |
| 2026-05-06 01:11 | 51.90076 | 7.62155 | 20886 ft | 345 kts | 307° |
| 2026-05-06 01:12 | 51.91558 | 7.59100 | 20807 ft | 344 kts | 307° |
| 2026-05-06 01:12 | 51.93014 | 7.56116 | 20691 ft | 344 kts | 307° |
| 2026-05-06 01:12 | 51.94511 | 7.53065 | 20585 ft | 343 kts | 307° |
| 2026-05-06 01:12 | 51.95996 | 7.50048 | 20480 ft | 343 kts | 307° |
| 2026-05-06 01:13 | 51.97506 | 7.46985 | 20380 ft | 342 kts | 307° |
| 2026-05-06 01:13 | 51.98968 | 7.44021 | 20283 ft | 341 kts | 307° |
| 2026-05-06 01:13 | 52.00453 | 7.41007 | 20181 ft | 340 kts | 307° |
| 2026-05-06 01:13 | 52.01937 | 7.37990 | 20076 ft | 339 kts | 307° |
| 2026-05-06 01:14 | 52.04311 | 7.31771 | 19865 ft | 332 kts | 280° |
| 2026-05-06 01:14 | 52.04428 | 7.28084 | 19682 ft | 329 kts | 259° |
| 2026-05-06 01:14 | 52.03728 | 7.24536 | 19341 ft | 329 kts | 239° |
| 2026-05-06 01:15 | 52.02406 | 7.21540 | 19028 ft | 327 kts | 230° |
| 2026-05-06 01:15 | 52.00946 | 7.18709 | 18677 ft | 327 kts | 229° |
| 2026-05-06 01:15 | 51.99496 | 7.15907 | 18317 ft | 325 kts | 229° |
| 2026-05-06 01:15 | 51.98057 | 7.13087 | 17985 ft | 324 kts | 230° |
| 2026-05-06 01:16 | 51.96621 | 7.10243 | 17599 ft | 323 kts | 230° |
| 2026-05-06 01:16 | 51.95240 | 7.07395 | 17229 ft | 321 kts | 231° |
| 2026-05-06 01:16 | 51.93885 | 7.04546 | 16898 ft | 319 kts | 231° |
| 2026-05-06 01:16 | 51.92529 | 7.01694 | 16562 ft | 317 kts | 232° |
| 2026-05-06 01:17 | 51.91184 | 6.98874 | 16236 ft | 315 kts | 231° |
| 2026-05-06 01:17 | 51.89846 | 6.96083 | 15913 ft | 314 kts | 231° |
| 2026-05-06 01:17 | 51.88507 | 6.93299 | 15588 ft | 312 kts | 231° |
| 2026-05-06 01:17 | 51.87172 | 6.90526 | 15263 ft | 311 kts | 231° |
| 2026-05-06 01:18 | 51.85864 | 6.87819 | 14949 ft | 310 kts | 231° |
| 2026-05-06 01:18 | 51.84534 | 6.85073 | 14628 ft | 309 kts | 231° |
| 2026-05-06 01:18 | 51.83203 | 6.82326 | 14309 ft | 309 kts | 231° |
| 2026-05-06 01:18 | 51.81878 | 6.79595 | 13989 ft | 308 kts | 231° |
| 2026-05-06 01:19 | 51.80555 | 6.76868 | 13674 ft | 308 kts | 231° |
| 2026-05-06 01:19 | 51.79236 | 6.74152 | 13316 ft | 308 kts | 231° |
| 2026-05-06 01:19 | 51.77914 | 6.71433 | 12970 ft | 307 kts | 231° |
| 2026-05-06 01:19 | 51.76597 | 6.68726 | 12644 ft | 306 kts | 231° |
| 2026-05-06 01:20 | 51.75298 | 6.66059 | 12329 ft | 305 kts | 231° |
| 2026-05-06 01:20 | 51.73969 | 6.63333 | 12004 ft | 304 kts | 231° |
| 2026-05-06 01:20 | 51.72661 | 6.60655 | 11687 ft | 303 kts | 231° |
| 2026-05-06 01:20 | 51.71361 | 6.57995 | 11378 ft | 302 kts | 231° |
| 2026-05-06 01:21 | 51.70166 | 6.55211 | 11046 ft | 302 kts | 245° |
| 2026-05-06 01:21 | 51.69677 | 6.51948 | 10745 ft | 301 kts | 266° |
| 2026-05-06 01:21 | 51.69585 | 6.48596 | 10449 ft | 300 kts | 268° |
| 2026-05-06 01:21 | 51.69525 | 6.45238 | 10142 ft | 299 kts | 268° |
| 2026-05-06 01:22 | 51.69467 | 6.41889 | 9827 ft | 299 kts | 268° |
| 2026-05-06 01:22 | 51.69403 | 6.38587 | 9773 ft | 289 kts | 268° |
| 2026-05-06 01:22 | 51.69334 | 6.35308 | 9222 ft | 294 kts | 268° |
| 2026-05-06 01:22 | 51.69261 | 6.32106 | 8896 ft | 286 kts | 268° |
| 2026-05-06 01:23 | 51.69187 | 6.28947 | 8565 ft | 279 kts | 268° |
| 2026-05-06 01:23 | 51.69115 | 6.25963 | 8295 ft | 270 kts | 268° |
| 2026-05-06 01:23 | 51.69042 | 6.23014 | 8030 ft | 257 kts | 268° |
| 2026-05-06 01:23 | 51.68972 | 6.20183 | 7735 ft | 247 kts | 268° |
| 2026-05-06 01:24 | 51.68903 | 6.17460 | 7478 ft | 241 kts | 268° |
| 2026-05-06 01:24 | 51.68834 | 6.14792 | 7238 ft | 237 kts | 268° |
| 2026-05-06 01:24 | 51.68765 | 6.12130 | 6996 ft | 237 kts | 268° |
| 2026-05-06 01:24 | 51.68696 | 6.09491 | 6753 ft | 235 kts | 269° |
| 2026-05-06 01:25 | 51.68707 | 6.06882 | 6502 ft | 231 kts | 273° |
| 2026-05-06 01:25 | 51.68771 | 6.04332 | 6268 ft | 226 kts | 273° |
| 2026-05-06 01:25 | 51.68833 | 6.01848 | 6007 ft | 219 kts | 274° |
| 2026-05-06 01:25 | 51.68888 | 5.99443 | 5810 ft | 210 kts | 273° |
| 2026-05-06 01:26 | 51.68938 | 5.97089 | 5590 ft | 210 kts | 274° |
| 2026-05-06 01:26 | 51.68988 | 5.94752 | 5395 ft | 207 kts | 274° |
| 2026-05-06 01:26 | 51.69034 | 5.92485 | 5412 ft | 201 kts | 274° |
| 2026-05-06 01:26 | 51.69082 | 5.90190 | 5204 ft | 208 kts | 274° |
| 2026-05-06 01:27 | 51.69128 | 5.87860 | 5006 ft | 208 kts | 274° |
| 2026-05-06 01:27 | 51.69153 | 5.85534 | 4748 ft | 206 kts | 266° |
| 2026-05-06 01:27 | 51.68600 | 5.83462 | 4499 ft | 203 kts | 225° |
| 2026-05-06 01:27 | 51.67408 | 5.82393 | 4364 ft | 195 kts | 190° |
| 2026-05-06 01:28 | 51.66052 | 5.82179 | 4188 ft | 198 kts | 179° |
| 2026-05-06 01:28 | 51.64657 | 5.82118 | 3975 ft | 202 kts | 179° |
| 2026-05-06 01:28 | 51.63277 | 5.82065 | 3753 ft | 201 kts | 178° |
| 2026-05-06 01:28 | 51.61933 | 5.82528 | 3503 ft | 192 kts | 144° |
| 2026-05-06 01:29 | 51.61092 | 5.84051 | 3324 ft | 179 kts | 111° |
| 2026-05-06 01:29 | 51.60848 | 5.85975 | 3161 ft | 176 kts | 89° |
| 2026-05-06 01:29 | 51.60797 | 5.87948 | 2971 ft | 177 kts | 92° |
| 2026-05-06 01:29 | 51.60679 | 5.89914 | 2782 ft | 174 kts | 93° |
| 2026-05-06 01:30 | 51.60568 | 5.91772 | 2581 ft | 162 kts | 88° |
| 2026-05-06 01:30 | 51.60572 | 5.93585 | 2522 ft | 160 kts | 87° |
| 2026-05-06 01:30 | 51.60562 | 5.95290 | 2517 ft | 146 kts | 88° |
| 2026-05-06 01:30 | 51.60544 | 5.96940 | 2171 ft | 146 kts | 87° |
| 2026-05-06 01:31 | 51.60495 | 5.98537 | 1890 ft | 141 kts | 87° |
| 2026-05-06 01:31 | 51.60423 | 6.00094 | 1595 ft | 139 kts | 88° |
| 2026-05-06 01:31 | 51.60346 | 6.01648 | 1387 ft | 144 kts | 88° |
| 2026-05-06 01:31 | 51.60280 | 6.03297 | 1203 ft | 146 kts | 88° |
| 2026-05-06 01:32 | 51.60220 | 6.04916 | 984 ft | 146 kts | 88° |
| 2026-05-06 01:32 | 51.60183 | 6.06569 | 787 ft | 149 kts | 88° |
| 2026-05-06 01:32 | 51.60199 | 6.08253 | 601 ft | 152 kts | 80° |
| 2026-05-06 01:32 | 51.60256 | 6.09924 | 527 ft | 156 kts | 83° |
| 2026-05-06 01:33 | 51.60284 | 6.11711 | 283 ft | 155 kts | 87° |
| 2026-05-06 01:33 | 51.60262 | 6.13434 | 119 ft | 151 kts | 89° |
| 2026-05-06 01:33 | 51.60229 | 6.15060 | 111 ft | 126 kts | 93° |
| 2026-05-06 01:33 | 51.60205 | 6.16041 | 113 ft | 27 kts | 92° |
| 2026-05-06 01:34 | 51.60198 | 6.16098 | 113 ft | 0 kts | 95° |
| 2026-05-06 01:34 | 51.60198 | 6.16099 | 113 ft | 0 kts | 86° |
| 2026-05-06 01:34 | 51.60201 | 6.16102 | 113 ft | 0 kts | 43° |
| 2026-05-06 01:34 | 51.60205 | 6.16101 | 113 ft | 0 kts | 2° |
| 2026-05-06 01:35 | 51.60207 | 6.16096 | 113 ft | 0 kts | 324° |
| 2026-05-06 01:35 | 51.60207 | 6.16091 | 113 ft | 1 kts | 290° |
| 2026-05-06 01:35 | 51.60208 | 6.16084 | 113 ft | 1 kts | 279° |
| 2026-05-06 01:35 | 51.60207 | 6.16060 | 113 ft | 4 kts | 267° |
| 2026-05-06 01:36 | 51.60206 | 6.16002 | 113 ft | 5 kts | 269° |
| 2026-05-06 01:36 | 51.60206 | 6.15943 | 112 ft | 5 kts | 269° |
| 2026-05-06 01:36 | 51.60206 | 6.15884 | 110 ft | 5 kts | 270° |
| 2026-05-06 01:36 | 51.60209 | 6.15826 | 113 ft | 5 kts | 274° |
| 2026-05-06 01:37 | 51.60209 | 6.15822 | 113 ft | 0 kts | 274° |
| 2026-05-06 01:37 | 51.60209 | 6.15821 | 113 ft | 0 kts | 274° |
| 2026-05-06 01:37 | 51.60209 | 6.15818 | 113 ft | 0 kts | 274° |
| 2026-05-06 01:38 | 51.60209 | 6.15815 | 113 ft | 0 kts | 274° |
| 2026-05-06 01:38 | 51.60209 | 6.15812 | 114 ft | 0 kts | 274° |
| 2026-05-06 01:38 | 51.60209 | 6.15810 | 114 ft | 0 kts | 275° |
| 2026-05-06 01:38 | 51.60209 | 6.15806 | 114 ft | 0 kts | 275° |
| 2026-05-06 01:39 | 51.60210 | 6.15803 | 111 ft | 0 kts | 275° |
| 2026-05-06 01:39 | 51.60210 | 6.15800 | 111 ft | 0 kts | 275° |
| 2026-05-06 01:39 | 51.60210 | 6.15799 | 111 ft | 0 kts | 275° |
| 2026-05-06 01:40 | 51.60210 | 6.15798 | 111 ft | 0 kts | 275° |
| 2026-05-06 01:40 | 51.60210 | 6.15797 | 111 ft | 0 kts | 275° |
| 2026-05-06 01:40 | 51.60210 | 6.15795 | 111 ft | 0 kts | 275° |
| 2026-05-06 01:40 | 51.60211 | 6.15783 | 113 ft | 3 kts | 275° |
| 2026-05-06 01:41 | 51.60215 | 6.15597 | 115 ft | 18 kts | 271° |
| 2026-05-06 01:41 | 51.60217 | 6.15510 | 114 ft | 0 kts | 271° |
| 2026-05-06 01:41 | 51.60211 | 6.15484 | 114 ft | 12 kts | 238° |
| 2026-05-06 01:41 | 51.60094 | 6.15461 | 112 ft | 12 kts | 182° |
| 2026-05-06 01:42 | 51.60036 | 6.15441 | 112 ft | 0 kts | 230° |
| 2026-05-06 01:42 | 51.60036 | 6.15437 | 112 ft | 1 kts | 245° |
| 2026-05-06 01:42 | 51.60035 | 6.15429 | 110 ft | 2 kts | 255° |
| 2026-05-06 01:42 | 51.60036 | 6.15270 | 109 ft | 25 kts | 271° |
| 2026-05-06 01:43 | 51.60040 | 6.15044 | 110 ft | 16 kts | 272° |
| 2026-05-06 01:43 | 51.60043 | 6.14916 | 110 ft | 0 kts | 272° |
| 2026-05-06 01:43 | 51.60043 | 6.14915 | 110 ft | 0 kts | 272° |
| 2026-05-06 01:43 | 51.60043 | 6.14913 | 110 ft | 0 kts | 272° |
| 2026-05-06 01:44 | 51.60043 | 6.14911 | 110 ft | 0 kts | 272° |
| 2026-05-06 01:44 | 51.60043 | 6.14910 | 110 ft | 0 kts | 272° |
| 2026-05-06 01:44 | 51.60043 | 6.14908 | 110 ft | 0 kts | 272° |
| 2026-05-06 01:44 | 51.60044 | 6.14873 | 110 ft | 15 kts | 272° |
| 2026-05-06 01:45 | 51.60030 | 6.14798 | 110 ft | 8 kts | 217° |
| 2026-05-06 01:45 | 51.60002 | 6.14794 | 110 ft | 0 kts | 155° |
| 2026-05-06 01:45 | 51.59999 | 6.14802 | 110 ft | 2 kts | 125° |
| 2026-05-06 01:45 | 51.59996 | 6.14816 | 109 ft | 0 kts | 101° |
| 2026-05-06 01:46 | 51.59997 | 6.14824 | 109 ft | 1 kts | 89° |
| 2026-05-06 01:46 | 51.59997 | 6.14828 | 110 ft | 1 kts | 90° |
| 2026-05-06 01:46 | 51.59997 | 6.14842 | 110 ft | 0 kts | 90° |
| 2026-05-06 01:46 | 51.59997 | 6.14851 | 110 ft | 1 kts | 91° |
| 2026-05-06 01:47 | 51.59997 | 6.14857 | 110 ft | 1 kts | 91° |
| 2026-05-06 01:47 | 51.59997 | 6.14866 | 110 ft | 1 kts | 91° |
| 2026-05-06 01:47 | 51.59997 | 6.14867 | 110 ft | 0 kts | 91° |